createdAt,value
2018-12-30T00:00:22.243Z,85.60
2018-12-30T00:02:50.119Z,86.20
2018-12-30T00:05:18.333Z,86.60
2018-12-30T00:07:46.154Z,86.30
2018-12-30T00:10:13.947Z,86.10
2018-12-30T00:12:41.692Z,86.30
2018-12-30T00:15:09.952Z,86.40
2018-12-30T00:17:37.725Z,85.60
2018-12-30T00:20:05.870Z,85.80
2018-12-30T00:22:33.730Z,85.60
2018-12-30T00:25:01.518Z,86.00
2018-12-30T00:27:29.288Z,85.40
2018-12-30T00:29:57.145Z,85.60
2018-12-30T00:32:25.776Z,85.90
2018-12-30T00:34:53.584Z,85.90
2018-12-30T00:37:21.375Z,85.90
2018-12-30T00:39:49.122Z,86.00
2018-12-30T00:42:27.035Z,86.60
2018-12-30T00:44:55.452Z,87.10
2018-12-30T00:47:23.262Z,87.30
2018-12-30T00:49:51.054Z,87.40
2018-12-30T00:52:18.890Z,88.10
2018-12-30T00:54:46.651Z,88.00
2018-12-30T00:57:14.421Z,88.50
2018-12-30T00:59:42.444Z,88.60
2018-12-30T01:02:10.349Z,88.60
2018-12-30T01:04:38.085Z,88.70
2018-12-30T01:07:06.056Z,89.00
2018-12-30T01:09:33.839Z,88.70
2018-12-30T01:12:06.704Z,88.70
2018-12-30T01:14:34.501Z,88.70
2018-12-30T01:17:02.317Z,88.80
2018-12-30T01:19:30.120Z,88.80
2018-12-30T01:21:59.255Z,88.80
2018-12-30T01:24:27.109Z,88.90
2018-12-30T01:26:54.929Z,89.30
2018-12-30T01:29:22.668Z,88.90
2018-12-30T01:31:50.475Z,88.40
2018-12-30T01:34:18.612Z,87.60
2018-12-30T01:36:46.424Z,88.20
2018-12-30T01:39:14.239Z,87.00
2018-12-30T01:41:42.295Z,88.10
2018-12-30T01:44:10.222Z,87.60
2018-12-30T01:46:38.026Z,87.10
2018-12-30T01:49:05.837Z,87.30
2018-12-30T01:51:33.721Z,87.20
2018-12-30T01:54:01.515Z,87.20
2018-12-30T01:56:29.607Z,87.20
2018-12-30T01:58:57.367Z,86.80
2018-12-30T02:01:25.168Z,86.90
2018-12-30T02:03:53.057Z,86.00
2018-12-30T02:06:20.889Z,86.00
2018-12-30T02:08:48.732Z,86.40
2018-12-30T02:11:16.572Z,86.00
2018-12-30T02:13:44.381Z,85.80
2018-12-30T02:16:13.746Z,85.80
2018-12-30T02:18:41.579Z,85.70
2018-12-30T02:21:09.352Z,85.40
2018-12-30T02:23:37.424Z,85.10
2018-12-30T02:26:05.237Z,85.00
2018-12-30T02:28:33.070Z,85.60
2018-12-30T02:31:00.847Z,85.00
2018-12-30T02:33:28.648Z,85.20
2018-12-30T02:35:56.495Z,85.30
2018-12-30T02:38:24.425Z,85.50
2018-12-30T02:40:52.228Z,84.20
2018-12-30T02:43:25.317Z,84.30
2018-12-30T02:45:53.080Z,84.20
2018-12-30T02:48:20.910Z,84.30
2018-12-30T02:50:48.747Z,84.30
2018-12-30T02:53:16.664Z,84.30
2018-12-30T02:55:44.484Z,83.70
2018-12-30T02:58:12.304Z,83.80
2018-12-30T03:00:40.058Z,83.40
2018-12-30T03:03:13.232Z,83.80
2018-12-30T03:05:41.085Z,82.70
2018-12-30T03:08:08.827Z,82.90
2018-12-30T03:10:36.687Z,82.20
2018-12-30T03:13:04.599Z,82.00
2018-12-30T03:15:32.396Z,81.80
2018-12-30T03:18:00.172Z,81.90
2018-12-30T03:20:28.015Z,81.60
2018-12-30T03:22:55.988Z,81.20
2018-12-30T03:25:23.794Z,81.10
2018-12-30T03:27:51.614Z,80.80
2018-12-30T03:30:19.600Z,80.50
2018-12-30T03:32:52.586Z,80.30
2018-12-30T03:35:20.344Z,80.00
2018-12-30T03:37:48.163Z,80.00
2018-12-30T03:40:15.994Z,79.30
2018-12-30T03:42:43.910Z,79.30
2018-12-30T03:45:11.731Z,79.30
2018-12-30T03:47:39.608Z,80.00
2018-12-30T03:50:07.424Z,79.40
2018-12-30T03:52:40.526Z,79.40
2018-12-30T03:55:08.331Z,79.40
2018-12-30T03:57:36.125Z,79.50
2018-12-30T04:00:04.761Z,79.30
2018-12-30T04:03:12.623Z,79.40
2018-12-30T04:05:41.018Z,79.40
2018-12-30T04:08:08.825Z,77.80
2018-12-30T04:10:36.636Z,77.80
2018-12-30T04:13:04.500Z,77.90
2018-12-30T04:15:32.339Z,78.00
2018-12-30T04:18:00.150Z,77.90
2018-12-30T04:20:27.901Z,77.80
2018-12-30T04:22:55.833Z,78.50
2018-12-30T04:25:23.604Z,78.00
2018-12-30T04:27:51.413Z,78.20
2018-12-30T04:30:37.909Z,77.80
2018-12-30T04:33:20.029Z,78.80
2018-12-30T04:35:47.800Z,79.40
2018-12-30T04:38:15.517Z,79.40
2018-12-30T04:40:43.332Z,79.40
2018-12-30T04:43:16.279Z,79.40
2018-12-30T04:45:44.141Z,79.30
2018-12-30T04:48:11.953Z,79.40
2018-12-30T04:50:40.107Z,79.40
2018-12-30T04:53:07.984Z,79.40
2018-12-30T04:55:35.792Z,78.60
2018-12-30T04:58:03.900Z,78.90
2018-12-30T05:00:31.695Z,79.00
2018-12-30T05:02:59.685Z,78.80
2018-12-30T05:05:30.298Z,79.30
2018-12-30T05:07:58.108Z,79.10
2018-12-30T05:10:25.937Z,78.60
2018-12-30T05:12:59.051Z,78.30
2018-12-30T05:15:26.859Z,78.30
2018-12-30T05:17:54.651Z,78.20
2018-12-30T05:20:22.415Z,77.80
2018-12-30T05:22:50.400Z,77.00
2018-12-30T05:25:18.145Z,77.00
2018-12-30T05:27:45.949Z,76.60
2018-12-30T05:30:13.734Z,77.10
2018-12-30T05:32:41.551Z,76.50
2018-12-30T05:35:09.410Z,74.70
2018-12-30T05:37:37.226Z,74.20
2018-12-30T05:40:05.010Z,73.60
2018-12-30T05:42:32.802Z,73.50
2018-12-30T05:45:00.629Z,74.00
2018-12-30T05:47:28.442Z,73.60
2018-12-30T05:49:56.221Z,73.90
2018-12-30T05:52:24.059Z,74.20
2018-12-30T05:54:51.825Z,74.10
2018-12-30T05:57:19.670Z,74.20
2018-12-30T05:59:47.456Z,73.70
2018-12-30T06:02:20.499Z,74.30
2018-12-30T06:04:48.257Z,74.20
2018-12-30T06:07:16.043Z,74.20
2018-12-30T06:09:43.834Z,74.20
2018-12-30T06:12:11.660Z,74.10
2018-12-30T06:14:39.487Z,73.60
2018-12-30T06:17:07.275Z,74.20
2018-12-30T06:19:35.028Z,74.10
2018-12-30T06:22:02.868Z,74.10
2018-12-30T06:24:30.639Z,74.00
2018-12-30T06:26:58.421Z,73.90
2018-12-30T06:29:26.218Z,73.80
2018-12-30T06:31:54.174Z,74.50
2018-12-30T06:34:21.980Z,74.10
2018-12-30T06:36:49.814Z,74.10
2018-12-30T06:39:17.661Z,74.10
2018-12-30T06:41:45.550Z,73.40
2018-12-30T06:44:13.340Z,74.00
2018-12-30T06:46:41.148Z,74.10
2018-12-30T06:49:10.610Z,72.90
2018-12-30T06:51:43.560Z,73.70
2018-12-30T06:54:11.371Z,73.20
2018-12-30T06:56:39.178Z,73.60
2018-12-30T06:59:06.969Z,72.80
2018-12-30T07:01:34.778Z,73.70
2018-12-30T07:04:02.568Z,73.00
2018-12-30T07:06:30.415Z,72.40
2018-12-30T07:08:58.187Z,73.10
2018-12-30T07:11:26.016Z,72.90
2018-12-30T07:13:53.872Z,72.00
2018-12-30T07:16:21.673Z,72.20
2018-12-30T07:18:49.460Z,71.90
2018-12-30T07:21:17.295Z,71.00
2018-12-30T07:23:50.447Z,70.30
2018-12-30T07:26:18.272Z,70.20
2018-12-30T07:28:46.324Z,68.80
2018-12-30T07:31:14.125Z,68.90
2018-12-30T07:33:41.908Z,68.80
2018-12-30T07:36:09.734Z,68.80
2018-12-30T07:38:37.545Z,68.80
2018-12-30T07:41:05.306Z,67.70
2018-12-30T07:43:33.139Z,68.40
2018-12-30T07:46:00.922Z,67.60
2018-12-30T07:48:28.748Z,68.40
2018-12-30T07:50:56.533Z,68.90
2018-12-30T07:53:24.401Z,67.60
2018-12-30T07:55:52.219Z,67.60
2018-12-30T07:58:19.994Z,68.20
2018-12-30T08:00:47.837Z,68.20
2018-12-30T08:03:15.637Z,67.00
2018-12-30T08:05:43.683Z,67.50
2018-12-30T08:08:11.445Z,66.40
2018-12-30T08:10:39.327Z,66.00
2018-12-30T08:13:07.333Z,66.50
2018-12-30T08:15:35.114Z,66.40
2018-12-30T08:18:02.890Z,66.70
2018-12-30T08:20:30.716Z,66.90
2018-12-30T08:22:58.644Z,66.90
2018-12-30T08:25:26.505Z,66.40
2018-12-30T08:27:54.272Z,67.60
2018-12-30T08:30:22.128Z,67.60
2018-12-30T08:32:50.053Z,66.90
2018-12-30T08:35:17.937Z,67.10
2018-12-30T08:37:45.700Z,67.40
2018-12-30T08:40:13.526Z,66.90
2018-12-30T08:42:41.412Z,67.20
2018-12-30T08:45:09.197Z,66.50
2018-12-30T08:47:37.007Z,67.70
2018-12-30T08:50:05.165Z,66.40
2018-12-30T08:52:33.430Z,66.50
2018-12-30T08:55:01.368Z,66.30
2018-12-30T08:57:29.223Z,65.30
2018-12-30T08:59:57.059Z,65.50
2018-12-30T09:02:24.876Z,65.70
2018-12-30T09:04:52.711Z,64.80
2018-12-30T09:07:20.541Z,63.80
2018-12-30T09:09:48.393Z,64.20
2018-12-30T09:12:16.212Z,63.90
2018-12-30T09:14:44.068Z,64.20
2018-12-30T09:17:11.877Z,62.80
2018-12-30T09:19:39.717Z,63.60
2018-12-30T09:22:07.537Z,62.40
2018-12-30T09:24:37.606Z,61.40
2018-12-30T09:27:05.412Z,60.90
2018-12-30T09:29:33.239Z,61.10
2018-12-30T09:32:06.300Z,60.50
2018-12-30T09:34:34.119Z,60.30
2018-12-30T09:37:01.984Z,60.50
2018-12-30T09:39:29.791Z,60.00
2018-12-30T09:42:02.870Z,60.60
2018-12-30T09:44:30.676Z,59.20
2018-12-30T09:46:58.520Z,60.00
2018-12-30T09:49:26.369Z,59.30
2018-12-30T09:51:54.261Z,59.80
2018-12-30T09:54:22.492Z,59.60
2018-12-30T09:56:50.368Z,59.20
2018-12-30T09:59:18.150Z,59.40
2018-12-30T10:01:45.922Z,59.60
2018-12-30T10:04:13.786Z,61.00
2018-12-30T10:06:41.648Z,59.20
2018-12-30T10:09:09.486Z,59.30
2018-12-30T10:11:37.841Z,59.50
2018-12-30T10:14:06.430Z,59.70
2018-12-30T10:16:34.252Z,59.40
2018-12-30T10:19:02.082Z,59.20
2018-12-30T10:21:29.885Z,59.70
2018-12-30T10:23:57.712Z,60.30
2018-12-30T10:26:25.493Z,59.20
2018-12-30T10:28:53.313Z,59.90
2018-12-30T10:31:21.039Z,60.20
2018-12-30T10:33:54.068Z,60.10
2018-12-30T10:36:21.906Z,59.80
2018-12-30T10:38:49.711Z,59.20
2018-12-30T10:41:17.530Z,59.30
2018-12-30T10:43:45.410Z,59.30
2018-12-30T10:46:13.227Z,59.40
2018-12-30T10:48:40.972Z,59.20
2018-12-30T10:51:08.733Z,59.30
2018-12-30T10:53:36.550Z,59.30
2018-12-30T10:56:04.428Z,59.20
2018-12-30T10:58:32.462Z,59.50
2018-12-30T11:01:00.541Z,59.50
2018-12-30T11:03:28.494Z,58.60
2018-12-30T11:05:56.307Z,58.80
2018-12-30T11:08:24.099Z,59.10
2018-12-30T11:10:56.678Z,58.70
2018-12-30T11:13:28.143Z,59.50
2018-12-30T11:15:56.079Z,59.40
2018-12-30T11:18:23.908Z,59.30
2018-12-30T11:20:51.739Z,58.80
2018-12-30T11:23:19.546Z,59.60
2018-12-30T11:25:47.336Z,59.60
2018-12-30T11:28:15.122Z,59.60
2018-12-30T11:30:42.881Z,59.50
2018-12-30T11:33:10.716Z,59.00
2018-12-30T11:35:46.937Z,59.00
2018-12-30T11:38:22.318Z,58.50
2018-12-30T11:40:50.133Z,58.50
2018-12-30T11:43:32.974Z,58.40
2018-12-30T11:46:00.770Z,59.30
2018-12-30T11:48:28.592Z,58.00
2018-12-30T11:50:56.371Z,58.40
2018-12-30T11:53:24.267Z,59.20
2018-12-30T11:55:52.055Z,58.80
2018-12-30T11:58:19.883Z,58.30
2018-12-30T12:00:47.680Z,58.50
2018-12-30T12:03:15.641Z,59.40
2018-12-30T12:05:43.440Z,58.80
2018-12-30T12:08:11.291Z,59.50
2018-12-30T12:10:39.042Z,59.40
2018-12-30T12:13:06.851Z,59.70
2018-12-30T12:15:34.628Z,59.70
2018-12-30T12:18:02.391Z,59.50
2018-12-30T12:20:30.237Z,59.40
2018-12-30T12:22:58.061Z,59.00
2018-12-30T12:25:25.796Z,58.50
2018-12-30T12:27:53.637Z,59.50
2018-12-30T12:30:21.388Z,59.00
2018-12-30T12:32:49.295Z,58.50
2018-12-30T12:35:17.086Z,58.90
2018-12-30T12:37:44.957Z,59.30
2018-12-30T12:40:12.756Z,58.40
2018-12-30T12:42:40.567Z,58.30
2018-12-30T12:45:08.367Z,59.70
2018-12-30T12:47:36.117Z,58.50
2018-12-30T12:50:04.243Z,59.70
2018-12-30T12:52:32.040Z,58.40
2018-12-30T12:54:59.899Z,58.80
2018-12-30T12:57:27.693Z,59.00
2018-12-30T12:59:55.460Z,58.80
2018-12-30T13:02:23.291Z,59.80
2018-12-30T13:04:51.039Z,58.80
2018-12-30T13:07:18.867Z,59.20
2018-12-30T13:09:46.632Z,58.80
2018-12-30T13:12:14.444Z,59.40
2018-12-30T13:14:42.264Z,58.90
2018-12-30T13:17:10.036Z,58.30
2018-12-30T13:19:37.874Z,59.60
2018-12-30T13:22:05.659Z,59.50
2018-12-30T13:24:39.856Z,59.60
2018-12-30T13:27:03.160Z,59.60
2018-12-30T13:29:30.918Z,59.30
2018-12-30T13:31:58.849Z,59.60
2018-12-30T13:34:26.640Z,59.40
2018-12-30T13:36:54.429Z,60.00
2018-12-30T13:39:22.253Z,59.50
2018-12-30T13:41:50.238Z,59.40
2018-12-30T13:44:18.114Z,59.40
2018-12-30T13:46:45.955Z,59.50
2018-12-30T13:49:13.791Z,59.50
2018-12-30T13:51:41.611Z,59.50
2018-12-30T13:54:09.418Z,59.50
2018-12-30T13:56:37.219Z,59.50
2018-12-30T13:59:05.058Z,59.50
2018-12-30T14:01:32.973Z,60.30
2018-12-30T14:04:00.802Z,60.60
2018-12-30T14:06:28.578Z,60.60
2018-12-30T14:08:56.360Z,60.60
2018-12-30T14:11:24.732Z,60.40
2018-12-30T14:13:52.556Z,61.30
2018-12-30T14:16:20.339Z,61.40
2018-12-30T14:18:48.150Z,61.30
2018-12-30T14:21:15.921Z,61.80
2018-12-30T14:23:43.743Z,61.80
2018-12-30T14:26:11.467Z,62.80
2018-12-30T14:28:39.336Z,62.60
2018-12-30T14:31:07.210Z,62.60
2018-12-30T14:33:40.063Z,63.10
2018-12-30T14:36:07.793Z,62.90
2018-12-30T14:38:35.617Z,62.80
2018-12-30T14:41:03.500Z,63.40
2018-12-30T14:43:31.449Z,63.00
2018-12-30T14:45:59.235Z,63.50
2018-12-30T14:48:27.018Z,63.20
2018-12-30T14:50:54.856Z,64.00
2018-12-30T14:53:22.752Z,63.80
2018-12-30T14:55:50.529Z,64.00
2018-12-30T14:58:18.363Z,64.20
2018-12-30T15:00:47.722Z,64.40
2018-12-30T15:03:40.393Z,63.70
2018-12-30T15:06:08.153Z,63.50
2018-12-30T15:08:35.942Z,64.50
2018-12-30T15:11:03.812Z,64.30
2018-12-30T15:13:31.587Z,64.30
2018-12-30T15:15:59.447Z,64.80
2018-12-30T15:18:27.283Z,64.20
2018-12-30T15:20:55.086Z,64.60
2018-12-30T15:23:22.899Z,64.30
2018-12-30T15:25:50.730Z,64.30
2018-12-30T15:28:18.562Z,64.20
2018-12-30T15:30:46.376Z,65.30
2018-12-30T15:33:14.184Z,65.10
2018-12-30T15:35:41.985Z,64.90
2018-12-30T15:38:09.776Z,65.10
2018-12-30T15:40:37.562Z,65.00
2018-12-30T15:43:30.083Z,64.60
2018-12-30T15:45:57.856Z,65.00
2018-12-30T15:48:25.664Z,64.90
2018-12-30T15:50:53.441Z,65.00
2018-12-30T15:53:21.346Z,65.50
2018-12-30T15:55:49.158Z,65.50
2018-12-30T15:58:16.946Z,65.10
2018-12-30T16:00:44.717Z,65.40
2018-12-30T16:03:12.676Z,65.50
2018-12-30T16:05:40.512Z,65.60
2018-12-30T16:08:08.367Z,65.30
2018-12-30T16:10:53.384Z,65.00
2018-12-30T16:13:35.602Z,65.20
2018-12-30T16:16:05.886Z,65.60
2018-12-30T16:18:37.030Z,65.20
2018-12-30T16:21:07.650Z,65.70
2018-12-30T16:23:35.670Z,64.90
2018-12-30T16:26:03.506Z,65.60
2018-12-30T16:28:33.183Z,65.10
2018-12-30T16:31:01.361Z,65.30
2018-12-30T16:33:44.384Z,65.30
2018-12-30T16:36:13.798Z,65.00
2018-12-30T16:38:41.568Z,65.20
2018-12-30T16:41:09.405Z,65.20
2018-12-30T16:44:01.690Z,65.00
2018-12-30T16:46:29.543Z,65.10
2018-12-30T16:48:57.375Z,65.40
2018-12-30T16:51:25.139Z,65.60
2018-12-30T16:53:53.080Z,65.60
2018-12-30T16:56:20.904Z,65.80
2018-12-30T16:58:48.699Z,66.80
2018-12-30T17:01:16.501Z,65.80
2018-12-30T17:03:44.438Z,65.90
2018-12-30T17:06:12.236Z,66.30
2018-12-30T17:08:40.048Z,66.00
2018-12-30T17:11:07.938Z,66.60
2018-12-30T17:13:35.695Z,66.60
2018-12-30T17:16:03.491Z,66.40
2018-12-30T17:18:31.293Z,66.40
2018-12-30T17:20:59.195Z,67.10
2018-12-30T17:23:26.988Z,66.80
2018-12-30T17:25:54.765Z,67.10
2018-12-30T17:28:22.580Z,67.00
2018-12-30T17:30:50.404Z,67.60
2018-12-30T17:33:18.206Z,67.90
2018-12-30T17:35:46.330Z,67.60
2018-12-30T17:38:14.266Z,68.10
2018-12-30T17:40:42.371Z,68.90
2018-12-30T17:43:10.163Z,68.40
2018-12-30T17:45:38.036Z,68.80
2018-12-30T17:48:06.006Z,69.20
2018-12-30T17:50:38.430Z,68.40
2018-12-30T17:53:06.535Z,67.90
2018-12-30T17:55:35.223Z,69.10
2018-12-30T17:58:03.070Z,68.00
2018-12-30T18:00:30.935Z,67.80
2018-12-30T18:03:02.653Z,67.80
2018-12-30T18:05:36.413Z,68.20
2018-12-30T18:08:04.306Z,68.60
2018-12-30T18:10:32.251Z,69.10
2018-12-30T18:13:00.171Z,69.40
2018-12-30T18:15:32.406Z,69.10
2018-12-30T18:18:02.565Z,69.40
2018-12-30T18:20:37.314Z,69.40
2018-12-30T18:23:05.552Z,70.10
2018-12-30T18:25:37.642Z,69.40
2018-12-30T18:28:10.438Z,69.20
2018-12-30T18:30:44.094Z,69.30
2018-12-30T18:33:15.840Z,69.40
2018-12-30T18:35:47.390Z,70.00
2018-12-30T18:38:26.786Z,69.80
2018-12-30T18:40:54.835Z,70.00
2018-12-30T18:43:22.716Z,69.90
2018-12-30T18:45:50.952Z,70.00
2018-12-30T18:48:36.803Z,70.20
2018-12-30T18:51:06.663Z,70.30
2018-12-30T18:53:36.623Z,70.50
2018-12-30T18:56:08.085Z,71.60
2018-12-30T18:58:39.551Z,71.40
2018-12-30T19:01:28.160Z,70.40
2018-12-30T19:04:02.440Z,70.60
2018-12-30T19:06:30.282Z,70.60
2018-12-30T19:08:58.337Z,70.00
2018-12-30T19:11:26.231Z,69.90
2018-12-30T19:13:56.092Z,70.40
2018-12-30T19:16:23.932Z,70.40
2018-12-30T19:18:51.759Z,70.80
2018-12-30T19:21:19.598Z,70.70
2018-12-30T19:23:47.862Z,70.50
2018-12-30T19:26:15.697Z,70.00
2018-12-30T19:28:43.578Z,69.90
2018-12-30T19:31:11.442Z,70.00
2018-12-30T19:33:39.447Z,70.20
2018-12-30T19:36:08.438Z,70.80
2018-12-30T19:38:37.246Z,71.40
2018-12-30T19:41:06.472Z,72.00
2018-12-30T19:43:35.489Z,71.80
2018-12-30T19:46:07.828Z,72.00
2018-12-30T19:48:36.718Z,72.10
2018-12-30T19:51:08.186Z,72.40
2018-12-30T19:53:39.607Z,72.50
2018-12-30T19:56:27.616Z,73.00
2018-12-30T19:58:56.561Z,73.60
2018-12-30T20:01:24.853Z,72.60
2018-12-30T20:03:55.329Z,72.90
2018-12-30T20:06:26.573Z,72.70
2018-12-30T20:08:56.462Z,72.80
2018-12-30T20:11:25.382Z,73.20
2018-12-30T20:13:54.706Z,73.10
2018-12-30T20:16:23.970Z,73.00
2018-12-30T20:18:54.758Z,73.30
2018-12-30T20:21:23.458Z,73.90
2018-12-30T20:23:51.917Z,74.60
2018-12-30T20:26:21.149Z,75.30
2018-12-30T20:28:51.880Z,75.70
2018-12-30T20:31:20.450Z,75.80
2018-12-30T20:34:14.993Z,76.10
2018-12-30T20:36:44.093Z,76.50
2018-12-30T20:39:14.671Z,76.70
2018-12-30T20:41:43.887Z,77.00
2018-12-30T20:44:15.330Z,76.80
2018-12-30T20:46:43.695Z,78.60
2018-12-30T20:49:12.565Z,77.10
2018-12-30T20:51:41.420Z,77.20
2018-12-30T20:54:31.265Z,77.50
2018-12-30T20:57:00.128Z,77.10
2018-12-30T20:59:31.728Z,77.70
2018-12-30T21:02:04.667Z,78.00
2018-12-30T21:04:35.475Z,78.00
2018-12-30T21:07:04.189Z,78.10
2018-12-30T21:09:36.016Z,77.30
2018-12-30T21:12:04.983Z,77.20
2018-12-30T21:14:34.075Z,77.20
2018-12-30T21:17:02.518Z,77.20
2018-12-30T21:19:30.974Z,77.40
2018-12-30T21:21:59.383Z,77.30
2018-12-30T21:24:28.154Z,77.20
2018-12-30T21:26:57.136Z,77.30
2018-12-30T21:29:27.144Z,77.50
2018-12-30T21:31:56.023Z,77.70
2018-12-30T21:34:24.673Z,77.30
2018-12-30T21:36:53.252Z,77.60
2018-12-30T21:39:21.506Z,77.40
2018-12-30T21:41:49.983Z,77.40
2018-12-30T21:44:18.214Z,77.50
2018-12-30T21:46:46.545Z,77.40
2018-12-30T21:49:14.834Z,77.50
2018-12-30T21:51:43.168Z,77.80
2018-12-30T21:54:11.471Z,77.70
2018-12-30T21:56:39.926Z,78.00
2018-12-30T21:59:08.399Z,78.00
2018-12-30T22:01:36.651Z,78.10
2018-12-30T22:04:05.018Z,78.20
2018-12-30T22:06:33.374Z,78.10
2018-12-30T22:09:01.671Z,78.40
2018-12-30T22:11:31.888Z,78.40
2018-12-30T22:14:00.359Z,78.00
2018-12-30T22:16:28.607Z,78.40
2018-12-30T22:18:56.932Z,78.00
2018-12-30T22:21:25.019Z,78.30
2018-12-30T22:23:53.400Z,78.70
2018-12-30T22:26:21.778Z,79.40
2018-12-30T22:28:49.874Z,79.40
2018-12-30T22:31:18.184Z,79.40
2018-12-30T22:33:46.766Z,79.40
2018-12-30T22:36:14.919Z,79.40
2018-12-30T22:38:43.067Z,79.30
2018-12-30T22:41:11.544Z,79.40
2018-12-30T22:43:39.912Z,79.40
2018-12-30T22:46:08.355Z,79.40
2018-12-30T22:48:36.662Z,79.40
2018-12-30T22:51:04.952Z,79.20
2018-12-30T22:53:33.356Z,79.40
2018-12-30T22:56:02.162Z,79.40
2018-12-30T22:58:33.004Z,79.40
2018-12-30T23:01:05.313Z,79.50
2018-12-30T23:03:34.158Z,79.50
2018-12-30T23:06:02.467Z,80.50
2018-12-30T23:08:30.880Z,80.70
2018-12-30T23:10:59.126Z,81.30
2018-12-30T23:13:27.711Z,82.10
2018-12-30T23:15:55.869Z,82.20
2018-12-30T23:18:24.323Z,82.40
2018-12-30T23:20:52.641Z,82.50
2018-12-30T23:23:31.127Z,82.40
2018-12-30T23:25:59.925Z,83.00
2018-12-30T23:28:28.170Z,82.90
2018-12-30T23:30:56.458Z,82.80
2018-12-30T23:33:27.304Z,82.80
2018-12-30T23:35:55.704Z,82.70
2018-12-30T23:38:24.274Z,83.10
2018-12-30T23:40:52.659Z,82.70
2018-12-30T23:43:21.208Z,82.90
2018-12-30T23:45:49.545Z,82.80
2018-12-30T23:48:17.927Z,82.90
2018-12-30T23:51:05.982Z,82.90
2018-12-30T23:53:34.518Z,82.30
2018-12-30T23:56:02.715Z,82.70
2018-12-30T23:58:31.056Z,82.00
